Renfrew, Pennsylvania
Current Conditions -  °F | °C
As of 4:55 PM on Monday 22 Dec 2014 (Local Time) from KBTP Reporting Station
Clear Clear  
Wind Chill: -1°   Ceiling: Unl
Heat Index:   Visibility: 10mi
Dew Point: -2°   Wind: 9mph
Humidity: 70%   Direction: 90°E
Pressure: 30.02"   Gusts: NA
Location:  40.81°N, 79.96°W
Report Text: KBTP 222155Z AUTO 09008KT 10SM CLR 03/M02 A3002 RMK AO1
Loading
Personal Weather Stations






























Interactive Weather Map New forecast layout! Learn more

10-Day Weather Forecast

Advertisements
Track Severe Weather on mobile